Welcome to Northern Hawkes Bay. New Zealand.
PWS Header
      nz Flag



Hit Counter


W3C Valid W3C Valid logo


    Wairoa

Select any of the Stations below to visit their websites.










Historic Data from Weather Underground
Select the location of interest below. Wairoa is the default. Please have patience, this Data is slow to load in.
Northern Hawkes Bay Historical Data
Daily Summary for October 22, 2017 Units:  Metric    English   Both
« Previous Day
Next Day »
Daily Weekly Monthly Yearly Custom
  High: Low: Average:
Temperature: 23.6 °C 13.7 °C 18.4 °C
Dew Point: 14.0 °C 7.0 °C 11.2 °C
Humidity: 83% 46% 63%
Wind Speed: 24.5km/h 0.0km/h 8.3km/h
Wind Gust: 35.6km/h - -
Wind- - WNW
Pressure: 1005.3 hPa 999.2 hPa -
Precipitation: 0.0 mm    
Historical Graphs
 
 
Tabular Data for October 22, 2017
Time Temperature Dew Point Pressure Wind Wind Speed Wind Gust Humidity Rainfall Rate (Hourly) solar
00:01 14.3 °C 11.4 °C 1000.9 hPa NNW 6.1 km/h 12.2 km/h 83% 0.0 mm 0 W/m2
00:06 14.3 °C 11.4 °C 1000.9 hPa NNW 8.7 km/h 12.2 km/h 83% 0.0 mm 0 W/m2
00:11 14.5 °C 11.4 °C 1000.9 hPa North 7.2 km/h 12.2 km/h 82% 0.0 mm 0 W/m2
00:17 14.6 °C 11.4 °C 1001.2 hPa NNE 8.7 km/h 12.2 km/h 81% 0.0 mm 0 W/m2
00:21 14.7 °C 11.3 °C 1000.9 hPa North 3.5 km/h 15.8 km/h 80% 0.0 mm 0 W/m2
00:27 14.6 °C 11.2 °C 1000.6 hPa North 7.2 km/h 15.8 km/h 80% 0.0 mm 0 W/m2
00:32 14.7 °C 11.3 °C 1000.6 hPa North 8.7 km/h 12.2 km/h 80% 0.0 mm 0 W/m2
00:37 14.8 °C 11.4 °C 1000.9 hPa North 9.7 km/h 13.4 km/h 80% 0.0 mm 0 W/m2
00:42 14.7 °C 11.3 °C 1000.6 hPa NNW 12.2 km/h 17.2 km/h 80% 0.0 mm 0 W/m2
00:47 14.9 °C 11.5 °C 1000.6 hPa NNW 9.7 km/h 17.2 km/h 80% 0.0 mm 0 W/m2
00:52 15.0 °C 11.2 °C 1000.6 hPa NNW 9.7 km/h 17.2 km/h 78% 0.0 mm 0 W/m2
00:57 15.2 °C 11.4 °C 1000.6 hPa North 9.7 km/h 17.2 km/h 78% 0.0 mm 0 W/m2
01:02 15.2 °C 11.2 °C 1000.6 hPa North 6.1 km/h 17.2 km/h 77% 0.0 mm 0 W/m2
01:07 15.3 °C 11.3 °C 1000.6 hPa North 8.7 km/h 15.8 km/h 77% 0.0 mm 0 W/m2
01:12 15.4 °C 11.2 °C 1000.9 hPa NNW 7.2 km/h 14.8 km/h 76% 0.0 mm 0 W/m2
01:17 15.4 °C 11.2 °C 1000.9 hPa NNW 6.1 km/h 14.8 km/h 76% 0.0 mm 0 W/m2
01:22 15.5 °C 11.3 °C 1000.6 hPa North 6.1 km/h 17.2 km/h 76% 0.0 mm 0 W/m2
01:27 15.5 °C 11.3 °C 1000.6 hPa NNW 6.1 km/h 17.2 km/h 76% 0.0 mm 0 W/m2
01:32 15.5 °C 11.3 °C 1000.2 hPa NNW 6.1 km/h 15.8 km/h 76% 0.0 mm 0 W/m2
01:37 15.5 °C 11.3 °C 1000.2 hPa NNW 6.1 km/h 13.4 km/h 76% 0.0 mm 0 W/m2
01:42 16.0 °C 11.4 °C 1000.6 hPa NW 9.7 km/h 17.2 km/h 74% 0.0 mm 0 W/m2
01:47 16.6 °C 11.6 °C 1000.2 hPa NW 12.2 km/h 17.2 km/h 72% 0.0 mm 0 W/m2
01:52 16.9 °C 11.4 °C 1000.6 hPa NW 8.7 km/h 20.9 km/h 70% 0.0 mm 0 W/m2
01:57 16.9 °C 11.4 °C 1000.2 hPa NW 2.6 km/h 20.9 km/h 70% 0.0 mm 0 W/m2
02:02 16.8 °C 11.5 °C 1000.2 hPa NW 2.6 km/h 18.3 km/h 71% 0.0 mm 0 W/m2
02:07 16.8 °C 11.5 °C 1000.2 hPa NW 2.6 km/h 9.7 km/h 71% 0.0 mm 0 W/m2
02:12 16.8 °C 11.5 °C 1000.2 hPa NW 3.5 km/h 8.7 km/h 71% 0.0 mm 0 W/m2
02:17 16.6 °C 11.3 °C 1000.2 hPa NNW 6.1 km/h 13.4 km/h 71% 0.0 mm 0 W/m2
02:22 16.8 °C 11.5 °C 999.9 hPa NNW 3.5 km/h 14.8 km/h 71% 0.0 mm 0 W/m2
02:27 16.8 °C 11.5 °C 999.9 hPa NNW 3.5 km/h 14.8 km/h 71% 0.0 mm 0 W/m2
02:32 16.8 °C 11.5 °C 1000.2 hPa NNW 7.2 km/h 13.4 km/h 71% 0.0 mm 0 W/m2
02:37 16.6 °C 11.6 °C 999.9 hPa NNW 6.1 km/h 13.4 km/h 72% 0.0 mm 0 W/m2
02:42 16.6 °C 11.6 °C 1000.2 hPa NNW 5.0 km/h 13.4 km/h 72% 0.0 mm 0 W/m2
02:47 16.6 °C 11.6 °C 999.5 hPa NNW 11.1 km/h 14.8 km/h 72% 0.0 mm 0 W/m2
02:52 16.6 °C 11.6 °C 999.5 hPa NNW 11.1 km/h 15.8 km/h 72% 0.0 mm 0 W/m2
02:53 16.6 °C 11.6 °C 999.5 hPa NNW 5.0 km/h 15.8 km/h 72% 0.0 mm 0 W/m2
02:58 16.8 °C 11.7 °C 999.5 hPa NNW 6.1 km/h 15.8 km/h 72% 0.0 mm 0 W/m2
03:03 16.8 °C 11.5 °C 999.5 hPa NW 2.6 km/h 13.4 km/h 71% 0.0 mm 0 W/m2
03:08 16.8 °C 11.5 °C 999.9 hPa NNW 9.7 km/h 13.4 km/h 71% 0.0 mm 0 W/m2
03:13 17.2 °C 11.3 °C 999.9 hPa North 6.1 km/h 18.3 km/h 68% 0.0 mm 0 W/m2
03:18 17.3 °C 11.3 °C 999.5 hPa NNW 11.1 km/h 19.5 km/h 68% 0.0 mm 0 W/m2
03:23 17.4 °C 11.2 °C 999.5 hPa NW 3.5 km/h 19.5 km/h 67% 0.0 mm 0 W/m2
03:28 17.2 °C 11.3 °C 999.5 hPa NNW 6.1 km/h 14.8 km/h 68% 0.0 mm 0 W/m2
03:33 17.1 °C 11.4 °C 999.5 hPa North 2.6 km/h 12.2 km/h 69% 0.0 mm 0 W/m2
03:38 16.9 °C 11.6 °C 999.5 hPa NNW 3.5 km/h 13.4 km/h 71% 0.0 mm 0 W/m2
03:43 16.9 °C 11.6 °C 999.5 hPa North 3.5 km/h 13.4 km/h 71% 0.0 mm 0 W/m2
03:48 17.1 °C 11.6 °C 999.5 hPa NNW 3.5 km/h 14.8 km/h 70% 0.0 mm 0 W/m2
03:53 17.2 °C 11.4 °C 999.9 hPa NNW 11.1 km/h 14.8 km/h 69% 0.0 mm 0 W/m2
04:03 17.5 °C 11.3 °C 999.9 hPa NW 6.1 km/h 18.3 km/h 67% 0.0 mm 0 W/m2
04:08 17.5 °C 11.3 °C 999.5 hPa NW 7.2 km/h 18.3 km/h 67% 0.0 mm 0 W/m2
04:13 17.5 °C 11.3 °C 999.5 hPa NNW 8.7 km/h 14.8 km/h 67% 0.0 mm 0 W/m2
04:18 17.5 °C 11.3 °C 999.9 hPa NNW 6.1 km/h 14.8 km/h 67% 0.0 mm 0 W/m2
04:23 17.4 °C 11.4 °C 999.9 hPa NNW 5.0 km/h 15.8 km/h 68% 0.0 mm 0 W/m2
04:28 17.1 °C 11.4 °C 999.9 hPa NNW 5.0 km/h 15.8 km/h 69% 0.0 mm 0 W/m2
04:33 17.1 °C 11.4 °C 999.9 hPa NNW 8.7 km/h 13.4 km/h 69% 0.0 mm 0 W/m2
04:38 17.1 °C 11.4 °C 999.5 hPa NNW 7.2 km/h 13.4 km/h 69% 0.0 mm 0 W/m2
04:43 17.0 °C 11.3 °C 999.5 hPa NNW 6.1 km/h 13.4 km/h 69% 0.0 mm 0 W/m2
04:48 16.9 °C 11.6 °C 999.5 hPa NNW 11.1 km/h 14.8 km/h 71% 0.0 mm 0 W/m2
04:53 17.2 °C 11.4 °C 999.2 hPa NW 12.2 km/h 21.9 km/h 69% 0.0 mm 0 W/m2
04:58 17.5 °C 11.3 °C 999.5 hPa NNW 11.1 km/h 21.9 km/h 67% 0.0 mm 0 W/m2
05:03 17.5 °C 11.1 °C 999.5 hPa NNW 9.7 km/h 20.9 km/h 66% 0.0 mm 0 W/m2
05:08 17.5 °C 11.3 °C 999.5 hPa NNW 13.4 km/h 20.9 km/h 67% 0.0 mm 0 W/m2
05:13 17.4 °C 11.2 °C 999.9 hPa NW 9.7 km/h 20.9 km/h 67% 0.0 mm 0 W/m2
05:18 17.3 °C 11.1 °C 999.5 hPa NNW 8.7 km/h 19.5 km/h 67% 0.0 mm 0 W/m2
05:23 17.3 °C 11.3 °C 999.5 hPa NNW 13.4 km/h 21.9 km/h 68% 0.0 mm 0 W/m2
05:28 17.3 °C 11.1 °C 999.5 hPa NNW 17.2 km/h 28.0 km/h 67% 0.0 mm 0 W/m2
05:33 17.5 °C 11.3 °C 999.9 hPa NNW 9.7 km/h 28.0 km/h 67% 0.0 mm 0 W/m2
05:38 17.5 °C 11.3 °C 999.9 hPa NNW 13.4 km/h 25.6 km/h 67% 0.0 mm 0 W/m2
05:43 17.4 °C 11.2 °C 999.9 hPa NNW 12.2 km/h 25.6 km/h 67% 0.0 mm 0 W/m2
05:48 17.4 °C 11.2 °C 999.9 hPa NNW 11.1 km/h 20.9 km/h 67% 0.0 mm 0 W/m2
05:53 17.5 °C 11.1 °C 999.9 hPa NNW 6.1 km/h 20.9 km/h 66% 0.0 mm 0 W/m2
05:58 17.5 °C 11.1 °C 999.9 hPa NNW 5.0 km/h 14.8 km/h 66% 0.0 mm 0 W/m2
06:03 17.4 °C 11.2 °C 999.9 hPa NNW 6.1 km/h 12.2 km/h 67% 0.0 mm 0 W/m2
06:08 17.2 °C 11.3 °C 999.9 hPa NNW 5.0 km/h 11.1 km/h 68% 0.0 mm 0 W/m2
06:13 17.2 °C 11.3 °C 999.9 hPa North 7.2 km/h 12.2 km/h 68% 0.0 mm 0 W/m2
06:18 17.3 °C 11.1 °C 999.9 hPa North 3.5 km/h 12.2 km/h 67% 0.0 mm 0 W/m2
06:23 17.2 °C 11.3 °C 999.9 hPa North 3.5 km/h 9.7 km/h 68% 0.0 mm 2 W/m2
06:28 17.1 °C 11.2 °C 999.9 hPa NNE 3.5 km/h 13.4 km/h 68% 0.0 mm 5 W/m2
06:33 17.1 °C 11.4 °C 1000.2 hPa North 2.6 km/h 13.4 km/h 69% 0.0 mm 9 W/m2
06:38 16.9 °C 11.6 °C 1000.2 hPa North 3.5 km/h 9.7 km/h 71% 0.0 mm 36 W/m2
06:43 17.2 °C 11.4 °C 1000.2 hPa NNW 3.5 km/h 12.2 km/h 69% 0.0 mm 43 W/m2
06:48 17.5 °C 11.6 °C 999.9 hPa NNW 1.1 km/h 12.2 km/h 68% 0.0 mm 21 W/m2
06:53 17.5 °C 11.6 °C 999.9 hPa NNW 3.5 km/h 8.7 km/h 68% 0.0 mm 22 W/m2
06:58 17.4 °C 11.4 °C 1000.2 hPa North 2.6 km/h 9.7 km/h 68% 0.0 mm 26 W/m2
07:03 17.3 °C 11.3 °C 1000.2 hPa North 2.6 km/h 9.7 km/h 68% 0.0 mm 28 W/m2
07:08 17.4 °C 11.4 °C 1000.2 hPa Calm   8.7 km/h 68% 0.0 mm 33 W/m2
07:13 17.4 °C 11.4 °C 1000.2 hPa Calm   7.2 km/h 68% 0.0 mm 37 W/m2
07:23 17.3 °C 11.6 °C 1000.6 hPa Calm   5.0 km/h 69% 0.0 mm 40 W/m2
07:28 17.3 °C 11.6 °C 1000.6 hPa Calm   5.0 km/h 69% 0.0 mm 43 W/m2
07:33 17.4 °C 11.9 °C 1000.6 hPa Calm   3.5 km/h 70% 0.0 mm 48 W/m2
07:38 17.4 °C 11.9 °C 1000.6 hPa Calm   6.1 km/h 70% 0.0 mm 51 W/m2
07:43 17.4 °C 11.9 °C 1000.6 hPa North 2.6 km/h 7.2 km/h 70% 0.0 mm 55 W/m2
07:48 17.4 °C 11.9 °C 1000.6 hPa North 3.5 km/h 7.2 km/h 70% 0.0 mm 57 W/m2
07:53 17.5 °C 12.0 °C 1000.6 hPa Calm   8.7 km/h 70% 0.0 mm 62 W/m2
07:58 17.5 °C 12.0 °C 1000.6 hPa NNW 1.1 km/h 8.7 km/h 70% 0.0 mm 63 W/m2
08:03 17.5 °C 12.0 °C 1000.9 hPa North 3.5 km/h 8.7 km/h 70% 0.0 mm 62 W/m2
08:08 17.5 °C 12.0 °C 1000.9 hPa North 3.5 km/h 9.7 km/h 70% 0.0 mm 65 W/m2
08:13 17.6 °C 11.8 °C 1000.9 hPa North 5.0 km/h 9.7 km/h 69% 0.0 mm 70 W/m2
08:18 17.8 °C 12.1 °C 1000.9 hPa NNE 1.1 km/h 6.1 km/h 69% 0.0 mm 76 W/m2
08:23 17.9 °C 12.2 °C 1000.9 hPa NE 2.6 km/h 6.1 km/h 69% 0.0 mm 77 W/m2
08:28 18.0 °C 12.0 °C 1000.9 hPa ENE 1.1 km/h 6.1 km/h 68% 0.0 mm 84 W/m2
08:33 18.0 °C 12.0 °C 1000.9 hPa ENE 6.1 km/h 9.7 km/h 68% 0.0 mm 87 W/m2
08:38 18.1 °C 12.1 °C 1000.9 hPa ENE 6.1 km/h 9.7 km/h 68% 0.0 mm 87 W/m2
08:43 18.2 °C 12.2 °C 1000.9 hPa ENE 5.0 km/h 9.7 km/h 68% 0.0 mm 80 W/m2
08:48 18.2 °C 12.0 °C 1000.9 hPa ENE 3.5 km/h 8.7 km/h 67% 0.0 mm 79 W/m2
08:53 18.2 °C 12.0 °C 1000.9 hPa ENE 2.6 km/h 7.2 km/h 67% 0.0 mm 80 W/m2
08:58 18.2 °C 12.2 °C 1000.9 hPa NE 2.6 km/h 7.2 km/h 68% 0.0 mm 85 W/m2
09:03 18.2 °C 12.2 °C 1000.9 hPa NE 1.1 km/h 9.7 km/h 68% 0.0 mm 84 W/m2
09:08 18.2 °C 12.2 °C 1000.9 hPa NE 2.6 km/h 9.7 km/h 68% 0.0 mm 86 W/m2
09:13 18.2 °C 12.2 °C 1000.9 hPa Calm   6.1 km/h 68% 0.0 mm 85 W/m2
09:18 18.3 °C 12.5 °C 1000.9 hPa Calm   6.1 km/h 69% 0.0 mm 87 W/m2
09:23 18.3 °C 12.7 °C 1000.9 hPa NE 1.1 km/h 5.0 km/h 70% 0.0 mm 94 W/m2
09:28 18.3 °C 12.7 °C 1000.9 hPa Calm   5.0 km/h 70% 0.0 mm 98 W/m2
09:34 18.3 °C 12.7 °C 1000.9 hPa Calm   8.7 km/h 70% 0.0 mm 102 W/m2
09:39 18.3 °C 12.7 °C 1001.2 hPa Calm   8.7 km/h 70% 0.0 mm 104 W/m2
09:44 18.6 °C 13.1 °C 1001.2 hPa Calm   5.0 km/h 70% 0.0 mm 110 W/m2
09:49 18.8 °C 13.0 °C 1001.2 hPa Calm   1.1 km/h 69% 0.0 mm 120 W/m2
09:54 19.0 °C 12.7 °C 1001.2 hPa Calm   2.6 km/h 67% 0.0 mm 125 W/m2
09:59 19.1 °C 12.8 °C 1001.2 hPa Calm   2.6 km/h 67% 0.0 mm 127 W/m2
10:04 19.1 °C 12.8 °C 1001.2 hPa NNW 3.5 km/h 12.2 km/h 67% 0.0 mm 129 W/m2
10:07 19.0 °C 12.5 °C 1001.2 hPa Calm   13.4 km/h 66% 0.0 mm 130 W/m2
10:12 19.0 °C 12.3 °C 1001.2 hPa NW 7.2 km/h 14.8 km/h 65% 0.0 mm 127 W/m2
10:17 19.0 °C 12.5 °C 1001.2 hPa NW 7.2 km/h 15.8 km/h 66% 0.0 mm 139 W/m2
10:22 19.1 °C 12.6 °C 1001.2 hPa NNW 9.7 km/h 15.8 km/h 66% 0.0 mm 147 W/m2
10:27 19.1 °C 12.6 °C 1001.2 hPa NNW 9.7 km/h 19.5 km/h 66% 0.0 mm 151 W/m2
10:32 19.1 °C 12.6 °C 1001.6 hPa NNW 8.7 km/h 19.5 km/h 66% 0.0 mm 172 W/m2
10:37 19.3 °C 12.8 °C 1001.2 hPa NW 5.0 km/h 18.3 km/h 66% 0.0 mm 179 W/m2
10:42 19.4 °C 12.7 °C 1001.6 hPa NNW 12.2 km/h 20.9 km/h 65% 0.0 mm 175 W/m2
10:47 19.4 °C 12.7 °C 1001.2 hPa NNW 11.1 km/h 20.9 km/h 65% 0.0 mm 189 W/m2
10:52 19.4 °C 12.7 °C 1001.6 hPa NNW 6.1 km/h 20.9 km/h 65% 0.0 mm 201 W/m2
10:57 19.7 °C 12.9 °C 1001.2 hPa NNW 9.7 km/h 18.3 km/h 65% 0.0 mm 221 W/m2
11:03 19.9 °C 12.9 °C 1001.6 hPa NNW 11.1 km/h 18.3 km/h 64% 0.0 mm 247 W/m2
11:08 20.1 °C 12.8 °C 1001.6 hPa NNW 6.1 km/h 17.2 km/h 63% 0.0 mm 245 W/m2
11:13 20.2 °C 13.2 °C 1001.2 hPa North 2.6 km/h 17.2 km/h 64% 0.0 mm 234 W/m2
11:18 20.2 °C 12.9 °C 1001.2 hPa North 2.6 km/h 23.3 km/h 63% 0.0 mm 234 W/m2
11:23 20.5 °C 13.2 °C 1001.2 hPa North 7.2 km/h 23.3 km/h 63% 0.0 mm 209 W/m2
11:28 20.6 °C 13.3 °C 1001.6 hPa North 7.2 km/h 12.2 km/h 63% 0.0 mm 197 W/m2
11:33 20.3 °C 13.1 °C 1001.2 hPa NNW 6.1 km/h 12.2 km/h 63% 0.0 mm 214 W/m2
11:39 20.5 °C 13.2 °C 1001.2 hPa NNW 2.6 km/h 13.4 km/h 63% 0.0 mm 218 W/m2
11:44 20.5 °C 13.2 °C 1001.6 hPa North 6.1 km/h 15.8 km/h 63% 0.0 mm 250 W/m2
11:49 20.8 °C 13.3 °C 1001.2 hPa North 12.2 km/h 18.3 km/h 62% 0.0 mm 309 W/m2
11:54 20.8 °C 12.8 °C 1001.2 hPa North 8.7 km/h 21.9 km/h 60% 0.0 mm 322 W/m2
11:59 21.1 °C 13.3 °C 1001.2 hPa NNW 3.5 km/h 25.6 km/h 61% 0.0 mm 373 W/m2
12:04 21.2 °C 13.2 °C 1001.2 hPa NNW 9.7 km/h 25.6 km/h 60% 0.0 mm 336 W/m2
12:09 21.3 °C 13.2 °C 1000.9 hPa NNW 3.5 km/h 19.5 km/h 60% 0.0 mm 297 W/m2
12:14 21.3 °C 13.0 °C 1000.9 hPa NNW 6.1 km/h 18.3 km/h 59% 0.0 mm 279 W/m2
12:19 21.2 °C 12.9 °C 1000.9 hPa NNW 17.2 km/h 21.9 km/h 59% 0.0 mm 278 W/m2
12:24 21.2 °C 13.4 °C 1000.9 hPa NNW 9.7 km/h 21.9 km/h 61% 0.0 mm 249 W/m2
12:29 21.1 °C 13.1 °C 1000.9 hPa NW 7.2 km/h 21.9 km/h 60% 0.0 mm 251 W/m2
12:34 21.1 °C 13.3 °C 1000.6 hPa NW 5.0 km/h 19.5 km/h 61% 0.0 mm 241 W/m2
12:39 21.3 °C 13.7 °C 1000.9 hPa NW 7.2 km/h 18.3 km/h 62% 0.0 mm 247 W/m2
12:44 21.4 °C 13.6 °C 1000.9 hPa NNW 3.5 km/h 15.8 km/h 61% 0.0 mm 302 W/m2
12:49 21.6 °C 14.0 °C 1000.9 hPa NW 12.2 km/h 15.8 km/h 62% 0.0 mm 355 W/m2
12:54 21.5 °C 13.7 °C 1000.9 hPa NW 13.4 km/h 21.9 km/h 61% 0.0 mm 329 W/m2
12:59 21.6 °C 13.3 °C 1000.9 hPa NW 21.9 km/h 31.7 km/h 59% 0.0 mm 370 W/m2
13:04 21.4 °C 13.6 °C 1000.9 hPa NW 17.2 km/h 31.7 km/h 61% 0.0 mm 296 W/m2
13:09 21.5 °C 13.7 °C 1000.9 hPa NNW 15.8 km/h 31.7 km/h 61% 0.0 mm 407 W/m2
13:14 21.6 °C 13.5 °C 1000.9 hPa NNW 11.1 km/h 27.0 km/h 60% 0.0 mm 371 W/m2
13:19 21.6 °C 13.5 °C 1001.2 hPa NNW 14.8 km/h 23.3 km/h 60% 0.0 mm 236 W/m2
13:24 21.4 °C 13.8 °C 1001.2 hPa NW 13.4 km/h 23.3 km/h 62% 0.0 mm 202 W/m2
13:30 21.4 °C 13.8 °C 1000.9 hPa NW 12.2 km/h 21.9 km/h 62% 0.0 mm 181 W/m2
13:35 21.2 °C 13.7 °C 1000.9 hPa NNW 9.7 km/h 23.3 km/h 62% 0.0 mm 196 W/m2
13:40 21.0 °C 13.2 °C 1001.2 hPa NW 15.8 km/h 31.7 km/h 61% 0.0 mm 196 W/m2
13:46 20.8 °C 13.5 °C 1000.9 hPa NW 15.8 km/h 31.7 km/h 63% 0.0 mm 235 W/m2
13:51 21.0 °C 13.4 °C 1000.9 hPa NW 12.2 km/h 21.9 km/h 62% 0.0 mm 273 W/m2
13:56 21.0 °C 13.4 °C 1000.9 hPa NW 12.2 km/h 28.0 km/h 62% 0.0 mm 287 W/m2
14:01 21.1 °C 13.6 °C 1000.9 hPa NW 12.2 km/h 28.0 km/h 62% 0.0 mm 263 W/m2
14:06 21.0 °C 13.2 °C 1000.9 hPa NNW 15.8 km/h 29.4 km/h 61% 0.0 mm 237 W/m2
14:11 21.0 °C 13.4 °C 1000.9 hPa NW 8.7 km/h 29.4 km/h 62% 0.0 mm 263 W/m2
14:16 21.0 °C 13.2 °C 1001.2 hPa NW 21.9 km/h 35.6 km/h 61% 0.0 mm 246 W/m2
14:21 20.8 °C 13.5 °C 1000.6 hPa NNW 17.2 km/h 35.6 km/h 63% 0.0 mm 237 W/m2
14:26 20.8 °C 13.5 °C 1000.9 hPa NNW 18.3 km/h 33.1 km/h 63% 0.0 mm 242 W/m2
14:31 20.8 °C 13.5 °C 1000.6 hPa NNW 13.4 km/h 33.1 km/h 63% 0.0 mm 251 W/m2
14:36 21.0 °C 13.2 °C 1000.9 hPa NW 24.5 km/h 30.6 km/h 61% 0.0 mm 249 W/m2
14:41 20.9 °C 12.8 °C 1000.9 hPa NW 13.4 km/h 33.1 km/h 60% 0.0 mm 249 W/m2
14:46 21.0 °C 12.4 °C 1000.6 hPa NNW 14.8 km/h 33.1 km/h 58% 0.0 mm 240 W/m2
14:51 21.0 °C 12.4 °C 1000.6 hPa NNW 9.7 km/h 30.6 km/h 58% 0.0 mm 244 W/m2
14:56 21.0 °C 12.2 °C 1000.6 hPa NW 12.2 km/h 30.6 km/h 57% 0.0 mm 232 W/m2
15:01 21.2 °C 12.3 °C 1000.6 hPa NW 7.2 km/h 30.6 km/h 57% 0.0 mm 237 W/m2
15:06 21.3 °C 12.4 °C 1000.6 hPa NNW 21.9 km/h 30.6 km/h 57% 0.0 mm 233 W/m2
15:11 21.2 °C 12.1 °C 1000.9 hPa NNW 15.8 km/h 30.6 km/h 56% 0.0 mm 174 W/m2
15:16 21.1 °C 12.0 °C 1000.6 hPa NNW 13.4 km/h 31.7 km/h 56% 0.0 mm 213 W/m2
15:21 21.1 °C 11.7 °C 1000.6 hPa NW 13.4 km/h 33.1 km/h 55% 0.0 mm 206 W/m2
15:26 21.2 °C 12.1 °C 1000.6 hPa NW 15.8 km/h 33.1 km/h 56% 0.0 mm 212 W/m2
15:31 21.3 °C 11.9 °C 1000.6 hPa NW 17.2 km/h 29.4 km/h 55% 0.0 mm 227 W/m2
15:36 21.3 °C 11.9 °C 1000.2 hPa NW 14.8 km/h 33.1 km/h 55% 0.0 mm 205 W/m2
15:41 21.3 °C 11.9 °C 1000.2 hPa NW 9.7 km/h 33.1 km/h 55% 0.0 mm 196 W/m2
15:46 21.5 °C 12.1 °C 1000.2 hPa NW 8.7 km/h 21.9 km/h 55% 0.0 mm 197 W/m2
15:51 21.6 °C 11.9 °C 1000.2 hPa NW 9.7 km/h 27.0 km/h 54% 0.0 mm 235 W/m2
15:56 21.6 °C 11.9 °C 1000.2 hPa NW 14.8 km/h 29.4 km/h 54% 0.0 mm 222 W/m2
16:01 21.8 °C 12.1 °C 1000.2 hPa NW 17.2 km/h 29.4 km/h 54% 0.0 mm 227 W/m2
16:06 21.7 °C 11.7 °C 1000.2 hPa NNW 13.4 km/h 28.0 km/h 53% 0.0 mm 198 W/m2
16:11 21.7 °C 11.7 °C 1000.2 hPa NW 8.7 km/h 28.0 km/h 53% 0.0 mm 190 W/m2
16:19 21.7 °C 12.3 °C 1000.6 hPa NW 6.1 km/h 21.9 km/h 55% 0.0 mm 182 W/m2
16:24 21.8 °C 12.4 °C 1000.2 hPa NW 7.2 km/h 15.8 km/h 55% 0.0 mm 204 W/m2
16:27 21.7 °C 11.7 °C 1000.2 hPa NW 13.4 km/h 30.6 km/h 53% 0.0 mm 196 W/m2
16:28 21.7 °C 11.7 °C 1000.2 hPa NW 7.2 km/h 30.6 km/h 53% 0.0 mm 205 W/m2
16:33 21.8 °C 12.4 °C 1000.6 hPa NW 9.7 km/h 30.6 km/h 55% 0.0 mm 242 W/m2
16:39 22.1 °C 12.1 °C 1000.2 hPa NW 14.8 km/h 28.0 km/h 53% 0.0 mm 383 W/m2
16:44 22.1 °C 11.8 °C 1000.6 hPa NW 15.8 km/h 28.0 km/h 52% 0.0 mm 214 W/m2
16:49 22.4 °C 12.1 °C 1000.6 hPa NNW 18.3 km/h 27.0 km/h 52% 0.0 mm 484 W/m2
16:54 23.0 °C 12.3 °C 1000.2 hPa NNW 7.2 km/h 28.0 km/h 51% 0.0 mm 459 W/m2
16:59 23.5 °C 12.2 °C 1000.6 hPa NW 18.3 km/h 28.0 km/h 49% 0.0 mm 413 W/m2
17:04 23.6 °C 11.7 °C 1000.2 hPa NW 14.8 km/h 30.6 km/h 47% 0.0 mm 226 W/m2
17:09 22.8 °C 11.6 °C 1000.2 hPa NW 11.1 km/h 30.6 km/h 49% 0.0 mm 191 W/m2
17:14 22.7 °C 11.4 °C 1000.6 hPa NW 7.2 km/h 24.5 km/h 49% 0.0 mm 323 W/m2
17:19 23.1 °C 11.2 °C 1000.6 hPa NW 12.2 km/h 28.0 km/h 47% 0.0 mm 220 W/m2
17:24 22.9 °C 11.0 °C 1000.6 hPa NW 14.8 km/h 28.0 km/h 47% 0.0 mm 246 W/m2
17:29 22.7 °C 10.8 °C 1000.6 hPa NW 19.5 km/h 27.0 km/h 47% 0.0 mm 270 W/m2
17:34 22.5 °C 10.3 °C 1000.6 hPa NW 15.8 km/h 31.7 km/h 46% 0.0 mm 247 W/m2
17:39 22.6 °C 10.7 °C 1000.6 hPa NW 17.2 km/h 31.7 km/h 47% 0.0 mm 240 W/m2
17:45 22.7 °C 10.5 °C 1000.9 hPa NW 15.8 km/h 28.0 km/h 46% 0.0 mm 258 W/m2
17:50 22.9 °C 11.0 °C 1000.9 hPa WNW 14.8 km/h 28.0 km/h 47% 0.0 mm 238 W/m2
17:55 22.5 °C 10.3 °C 1001.2 hPa WNW 5.0 km/h 28.0 km/h 46% 0.0 mm 157 W/m2
18:00 22.1 °C 10.6 °C 1000.9 hPa NW 13.4 km/h 28.0 km/h 48% 0.0 mm 147 W/m2
18:05 21.7 °C 10.8 °C 1000.9 hPa NW 12.2 km/h 27.0 km/h 50% 0.0 mm 130 W/m2
18:10 21.3 °C 10.4 °C 1001.2 hPa NW 7.2 km/h 29.4 km/h 50% 0.0 mm 75 W/m2
18:15 21.0 °C 10.8 °C 1001.2 hPa NW 20.9 km/h 30.6 km/h 52% 0.0 mm 76 W/m2
18:20 20.9 °C 11.0 °C 1001.2 hPa NW 12.2 km/h 30.6 km/h 53% 0.0 mm 67 W/m2
18:25 20.6 °C 10.7 °C 1001.2 hPa NW 13.4 km/h 30.6 km/h 53% 0.0 mm 60 W/m2
18:30 20.4 °C 10.2 °C 1001.6 hPa NW 12.2 km/h 29.4 km/h 52% 0.0 mm 63 W/m2
18:36 20.3 °C 10.4 °C 1001.6 hPa NW 8.7 km/h 29.4 km/h 53% 0.0 mm 65 W/m2
18:41 20.3 °C 10.1 °C 1001.6 hPa NW 11.1 km/h 23.3 km/h 52% 0.0 mm 79 W/m2
18:46 20.3 °C 9.6 °C 1001.6 hPa NW 17.2 km/h 29.4 km/h 50% 0.0 mm 50 W/m2
18:51 20.0 °C 9.6 °C 1001.6 hPa NNW 19.5 km/h 31.7 km/h 51% 0.0 mm 43 W/m2
18:56 19.9 °C 9.8 °C 1001.6 hPa NW 11.1 km/h 31.7 km/h 52% 0.0 mm 42 W/m2
19:15 19.3 °C 9.5 °C 1001.9 hPa NW 6.1 km/h 19.5 km/h 53% 0.0 mm 23 W/m2
19:20 19.1 °C 9.0 °C 1001.6 hPa NW 6.1 km/h 19.5 km/h 52% 0.0 mm 17 W/m2
19:25 18.9 °C 9.4 °C 1001.9 hPa NW 15.8 km/h 24.5 km/h 54% 0.0 mm 10 W/m2
19:30 18.8 °C 9.1 °C 1001.9 hPa NW 8.7 km/h 27.0 km/h 53% 0.0 mm 4 W/m2
19:35 18.7 °C 9.2 °C 1001.9 hPa NW 5.0 km/h 27.0 km/h 54% 0.0 mm 1 W/m2
19:40 18.5 °C 9.3 °C 1001.9 hPa NW 14.8 km/h 25.6 km/h 55% 0.0 mm 0 W/m2
19:45 18.5 °C 9.0 °C 1001.9 hPa NW 11.1 km/h 25.6 km/h 54% 0.0 mm 0 W/m2
19:50 18.3 °C 9.1 °C 1002.3 hPa NW 8.7 km/h 23.3 km/h 55% 0.0 mm 0 W/m2
19:55 18.2 °C 9.0 °C 1002.3 hPa NW 5.0 km/h 20.9 km/h 55% 0.0 mm 0 W/m2
20:00 18.0 °C 8.8 °C 1002.3 hPa NW 9.7 km/h 19.5 km/h 55% 0.0 mm 0 W/m2
20:05 18.0 °C 8.8 °C 1002.3 hPa NW 9.7 km/h 20.9 km/h 55% 0.0 mm 0 W/m2
20:10 17.9 °C 8.7 °C 1002.6 hPa NW 7.2 km/h 20.9 km/h 55% 0.0 mm 0 W/m2
20:15 17.7 °C 8.6 °C 1002.6 hPa NNW 6.1 km/h 15.8 km/h 55% 0.0 mm 0 W/m2
20:20 17.6 °C 8.7 °C 1002.6 hPa NNW 6.1 km/h 13.4 km/h 56% 0.0 mm 0 W/m2
20:25 17.5 °C 8.6 °C 1002.9 hPa NW 5.0 km/h 13.4 km/h 56% 0.0 mm 0 W/m2
20:30 17.4 °C 8.8 °C 1002.6 hPa NW 9.7 km/h 15.8 km/h 57% 0.0 mm 0 W/m2
20:36 17.4 °C 8.8 °C 1002.9 hPa NW 7.2 km/h 15.8 km/h 57% 0.0 mm 0 W/m2
20:41 17.3 °C 8.7 °C 1002.9 hPa NW 6.1 km/h 17.2 km/h 57% 0.0 mm 0 W/m2
20:46 17.1 °C 8.8 °C 1002.9 hPa NW 6.1 km/h 17.2 km/h 58% 0.0 mm 0 W/m2
20:52 16.9 °C 9.3 °C 1003.3 hPa NNW 7.2 km/h 14.8 km/h 61% 0.0 mm 0 W/m2
20:57 16.7 °C 8.9 °C 1003.3 hPa NW 7.2 km/h 15.8 km/h 60% 0.0 mm 0 W/m2
21:02 16.7 °C 8.9 °C 1003.3 hPa NW 6.1 km/h 19.5 km/h 60% 0.0 mm 0 W/m2
21:07 16.7 °C 8.7 °C 1003.3 hPa NW 6.1 km/h 19.5 km/h 59% 0.0 mm 0 W/m2
21:12 16.7 °C 8.7 °C 1003.6 hPa NW 2.6 km/h 17.2 km/h 59% 0.0 mm 0 W/m2
21:17 16.6 °C 8.3 °C 1003.9 hPa NNW 3.5 km/h 14.8 km/h 58% 0.0 mm 0 W/m2
21:22 16.6 °C 7.8 °C 1003.9 hPa NNW 9.7 km/h 17.2 km/h 56% 0.0 mm 0 W/m2
21:27 16.5 °C 7.7 °C 1003.9 hPa NNW 5.0 km/h 17.2 km/h 56% 0.0 mm 0 W/m2
21:32 16.4 °C 7.9 °C 1003.9 hPa NW 2.6 km/h 15.8 km/h 57% 0.0 mm 0 W/m2
21:37 16.2 °C 7.7 °C 1004.3 hPa NW 11.1 km/h 19.5 km/h 57% 0.0 mm 0 W/m2
21:42 16.2 °C 7.4 °C 1003.9 hPa NW 8.7 km/h 21.9 km/h 56% 0.0 mm 0 W/m2
21:47 16.0 °C 7.2 °C 1004.3 hPa NNW 12.2 km/h 21.9 km/h 56% 0.0 mm 0 W/m2
21:52 15.9 °C 7.4 °C 1004.3 hPa NNW 9.7 km/h 20.9 km/h 57% 0.0 mm 0 W/m2
21:57 15.8 °C 7.3 °C 1004.3 hPa NNW 6.1 km/h 20.9 km/h 57% 0.0 mm 0 W/m2
22:02 15.7 °C 7.2 °C 1004.3 hPa NNW 9.7 km/h 21.9 km/h 57% 0.0 mm 0 W/m2
22:07 15.6 °C 7.1 °C 1004.3 hPa NNW 8.7 km/h 21.9 km/h 57% 0.0 mm 0 W/m2
22:12 15.5 °C 7.0 °C 1004.3 hPa North 13.4 km/h 18.3 km/h 57% 0.0 mm 0 W/m2
22:17 15.4 °C 7.2 °C 1004.3 hPa NNW 5.0 km/h 18.3 km/h 58% 0.0 mm 0 W/m2
22:22 15.3 °C 7.3 °C 1004.6 hPa NW 5.0 km/h 17.2 km/h 59% 0.0 mm 0 W/m2
22:27 15.1 °C 7.4 °C 1004.6 hPa NNW 6.1 km/h 13.4 km/h 60% 0.0 mm 0 W/m2
22:32 15.0 °C 7.3 °C 1004.6 hPa NNW 13.4 km/h 19.5 km/h 60% 0.0 mm 0 W/m2
22:37 15.0 °C 7.3 °C 1004.6 hPa NNW 11.1 km/h 20.9 km/h 60% 0.0 mm 0 W/m2
22:42 14.9 °C 7.7 °C 1004.6 hPa NNW 8.7 km/h 20.9 km/h 62% 0.0 mm 0 W/m2
22:47 14.8 °C 7.6 °C 1004.6 hPa NW 8.7 km/h 20.9 km/h 62% 0.0 mm 0 W/m2
22:52 14.7 °C 7.5 °C 1004.6 hPa NW 8.7 km/h 18.3 km/h 62% 0.0 mm 0 W/m2
22:57 14.6 °C 7.7 °C 1004.6 hPa NNW 6.1 km/h 15.8 km/h 63% 0.0 mm 0 W/m2
23:02 14.5 °C 7.6 °C 1004.6 hPa NNW 8.7 km/h 19.5 km/h 63% 0.0 mm 0 W/m2
23:07 14.4 °C 7.7 °C 1005.0 hPa NNW 7.2 km/h 19.5 km/h 64% 0.0 mm 0 W/m2
23:12 14.3 °C 7.6 °C 1005.0 hPa NNW 8.7 km/h 18.3 km/h 64% 0.0 mm 0 W/m2
23:17 14.2 °C 7.5 °C 1005.0 hPa NNW 8.7 km/h 18.3 km/h 64% 0.0 mm 0 W/m2
23:22 14.2 °C 7.5 °C 1005.0 hPa NNW 9.7 km/h 18.3 km/h 64% 0.0 mm 0 W/m2
23:27 14.1 °C 7.4 °C 1005.0 hPa NNW 6.1 km/h 18.3 km/h 64% 0.0 mm 0 W/m2
23:37 13.9 °C 7.4 °C 1005.0 hPa NNW 7.2 km/h 19.5 km/h 65% 0.0 mm 0 W/m2
23:42 13.9 °C 7.4 °C 1005.3 hPa NNW 6.1 km/h 17.2 km/h 65% 0.0 mm 0 W/m2
23:47 13.9 °C 7.7 °C 1005.0 hPa NNW 6.1 km/h 17.2 km/h 66% 0.0 mm 0 W/m2
23:53 13.7 °C 7.4 °C 1005.0 hPa NNW 7.2 km/h 17.2 km/h 66% 0.0 mm 0 W/m2
23:58 13.7 °C 7.4 °C 1005.3 hPa NNW 11.1 km/h 17.2 km/h 66% 0.0 mm 0 W/m2
Northern Hawkes Bay. New Zealand Historic Data
Compliments of Weather Underground - 2 mb